sensor_id;sensor_type;location;lat;lon;timestamp;pressure;altitude;pressure_sealevel;temperature;humidity
67457;BME280;54319;52.038;4.640;2023-03-23T00:02:07;100279.84;;;11.56;86.57
67457;BME280;54319;52.038;4.640;2023-03-23T00:04:34;100262.41;;;11.57;86.48
67457;BME280;54319;52.038;4.640;2023-03-23T00:07:02;100257.78;;;11.57;86.37
67457;BME280;54319;52.038;4.640;2023-03-23T00:09:29;100261.78;;;11.55;86.28
67457;BME280;54319;52.038;4.640;2023-03-23T00:11:59;100261.69;;;11.62;85.98
67457;BME280;54319;52.038;4.640;2023-03-23T00:14:31;100260.63;;;11.63;86.18
67457;BME280;54319;52.038;4.640;2023-03-23T00:17:06;100260.25;;;11.59;86.04
67457;BME280;54319;52.038;4.640;2023-03-23T00:19:35;100256.47;;;11.60;86.04
67457;BME280;54319;52.038;4.640;2023-03-23T00:22:14;100252.31;;;11.57;86.08
67457;BME280;54319;52.038;4.640;2023-03-23T00:24:42;100245.78;;;11.58;85.82
67457;BME280;54319;52.038;4.640;2023-03-23T00:27:09;100251.72;;;11.55;86.28
67457;BME280;54319;52.038;4.640;2023-03-23T00:29:38;100239.09;;;11.54;86.27
67457;BME280;54319;52.038;4.640;2023-03-23T00:32:05;100240.53;;;11.57;85.74
67457;BME280;54319;52.038;4.640;2023-03-23T00:34:32;100246.59;;;11.59;85.79
67457;BME280;54319;52.038;4.640;2023-03-23T00:36:59;100240.31;;;11.58;85.75
67457;BME280;54319;52.038;4.640;2023-03-23T00:39:28;100234.84;;;11.58;85.75
67457;BME280;54319;52.038;4.640;2023-03-23T00:41:55;100226.66;;;11.58;85.37
67457;BME280;54319;52.038;4.640;2023-03-23T00:44:26;100220.34;;;11.58;85.55
67457;BME280;54319;52.038;4.640;2023-03-23T00:46:53;100208.59;;;11.57;85.60
67457;BME280;54319;52.038;4.640;2023-03-23T00:49:22;100208.22;;;11.54;85.97
67457;BME280;54319;52.038;4.640;2023-03-23T00:51:50;100210.72;;;11.43;85.61
67457;BME280;54319;52.038;4.640;2023-03-23T00:54:17;100216.19;;;11.55;85.69
67457;BME280;54319;52.038;4.640;2023-03-23T00:56:45;100220.22;;;11.53;85.48
67457;BME280;54319;52.038;4.640;2023-03-23T00:59:13;100227.81;;;11.51;85.59
67457;BME280;54319;52.038;4.640;2023-03-23T01:01:40;100240.16;;;11.53;85.48
67457;BME280;54319;52.038;4.640;2023-03-23T01:04:07;100229.94;;;11.49;85.27
67457;BME280;54319;52.038;4.640;2023-03-23T01:06:38;100234.47;;;11.55;85.37
67457;BME280;54319;52.038;4.640;2023-03-23T01:09:06;100228.16;;;11.54;85.12
67457;BME280;54319;52.038;4.640;2023-03-23T01:11:32;100204.91;;;11.52;85.30
67457;BME280;54319;52.038;4.640;2023-03-23T01:14:01;100211.19;;;11.52;85.14
67457;BME280;54319;52.038;4.640;2023-03-23T01:16:27;100191.47;;;11.50;85.64
67457;BME280;54319;52.038;4.640;2023-03-23T01:18:54;100207.50;;;11.47;85.71
67457;BME280;54319;52.038;4.640;2023-03-23T01:21:21;100191.72;;;11.49;85.81
67457;BME280;54319;52.038;4.640;2023-03-23T01:23:50;100200.84;;;11.42;86.06
67457;BME280;54319;52.038;4.640;2023-03-23T01:26:18;100199.19;;;11.41;85.57
67457;BME280;54319;52.038;4.640;2023-03-23T01:28:45;100189.06;;;11.42;85.63
67457;BME280;54319;52.038;4.640;2023-03-23T01:31:16;100186.13;;;11.43;85.71
67457;BME280;54319;52.038;4.640;2023-03-23T01:33:43;100192.53;;;11.49;85.43
67457;BME280;54319;52.038;4.640;2023-03-23T01:36:12;100192.19;;;11.46;85.48
67457;BME280;54319;52.038;4.640;2023-03-23T01:38:39;100180.41;;;11.45;85.83
67457;BME280;54319;52.038;4.640;2023-03-23T01:41:05;100182.91;;;11.47;85.38
67457;BME280;54319;52.038;4.640;2023-03-23T01:43:32;100193.25;;;11.44;85.40
67457;BME280;54319;52.038;4.640;2023-03-23T01:45:58;100163.09;;;11.39;85.44
67457;BME280;54319;52.038;4.640;2023-03-23T01:48:29;100173.06;;;11.46;85.65
67457;BME280;54319;52.038;4.640;2023-03-23T01:50:59;100177.34;;;11.41;85.61
67457;BME280;54319;52.038;4.640;2023-03-23T01:53:32;100179.00;;;11.42;85.68
67457;BME280;54319;52.038;4.640;2023-03-23T01:56:01;100171.41;;;11.44;85.88
67457;BME280;54319;52.038;4.640;2023-03-23T01:58:31;100155.50;;;11.41;85.90
67457;BME280;54319;52.038;4.640;2023-03-23T02:01:03;100194.91;;;11.46;85.93
67457;BME280;54319;52.038;4.640;2023-03-23T02:03:35;100153.66;;;11.35;85.84
67457;BME280;54319;52.038;4.640;2023-03-23T02:06:02;100150.59;;;11.32;86.43
67457;BME280;54319;52.038;4.640;2023-03-23T02:08:30;100171.50;;;11.38;86.63
67457;BME280;54319;52.038;4.640;2023-03-23T02:10:58;100182.88;;;11.35;86.65
67457;BME280;54319;52.038;4.640;2023-03-23T02:13:26;100180.38;;;11.33;86.78
67457;BME280;54319;52.038;4.640;2023-03-23T02:16:02;100188.81;;;11.32;86.81
67457;BME280;54319;52.038;4.640;2023-03-23T02:18:47;100183.38;;;11.32;86.77
67457;BME280;54319;52.038;4.640;2023-03-23T02:27:08;100171.59;;;11.31;87.02
67457;BME280;54319;52.038;4.640;2023-03-23T02:30:20;100178.72;;;11.32;86.69
67457;BME280;54319;52.038;4.640;2023-03-23T02:33:17;100172.34;;;11.38;86.40
67457;BME280;54319;52.038;4.640;2023-03-23T02:35:50;100168.66;;;11.44;86.22
67457;BME280;54319;52.038;4.640;2023-03-23T02:38:22;100169.75;;;11.43;86.40
67457;BME280;54319;52.038;4.640;2023-03-23T02:40:50;100165.81;;;11.39;86.57
67457;BME280;54319;52.038;4.640;2023-03-23T02:43:17;100166.41;;;11.41;86.29
67457;BME280;54319;52.038;4.640;2023-03-23T02:45:46;100174.13;;;11.44;85.93
67457;BME280;54319;52.038;4.640;2023-03-23T02:48:15;100163.09;;;11.39;86.57
67457;BME280;54319;52.038;4.640;2023-03-23T02:50:48;100170.22;;;11.40;86.59
67457;BME280;54319;52.038;4.640;2023-03-23T02:53:18;100170.56;;;11.44;86.35
67457;BME280;54319;52.038;4.640;2023-03-23T02:55:46;100170.69;;;11.49;86.26
67457;BME280;54319;52.038;4.640;2023-03-23T02:58:14;100140.75;;;11.42;86.09
67457;BME280;54319;52.038;4.640;2023-03-23T03:00:41;100161.06;;;11.47;86.10
67457;BME280;54319;52.038;4.640;2023-03-23T03:03:12;100156.69;;;11.46;86.10
67457;BME280;54319;52.038;4.640;2023-03-23T03:05:47;100166.75;;;11.45;85.79
67457;BME280;54319;52.038;4.640;2023-03-23T03:08:19;100099.50;;;11.08;86.10
67457;BME280;54319;52.038;4.640;2023-03-23T03:10:54;100156.69;;;11.46;86.21
67457;BME280;54319;52.038;4.640;2023-03-23T03:13:32;100146.81;;;11.44;86.16
67457;BME280;54319;52.038;4.640;2023-03-23T03:16:07;100138.84;;;11.43;85.87
67457;BME280;54319;52.038;4.640;2023-03-23T03:18:44;100152.41;;;11.50;85.70
67457;BME280;54319;52.038;4.640;2023-03-23T03:21:14;100164.63;;;11.47;85.88
67457;BME280;54319;52.038;4.640;2023-03-23T03:23:46;100163.34;;;11.50;86.25
67457;BME280;54319;52.038;4.640;2023-03-23T03:26:16;100149.66;;;11.38;89.04
67457;BME280;54319;52.038;4.640;2023-03-23T03:28:47;100139.03;;;11.18;90.50
67457;BME280;54319;52.038;4.640;2023-03-23T03:31:17;100151.50;;;11.13;91.48
67457;BME280;54319;52.038;4.640;2023-03-23T03:33:46;100153.25;;;11.08;91.03
67457;BME280;54319;52.038;4.640;2023-03-23T03:36:18;100163.94;;;11.09;90.82
67457;BME280;54319;52.038;4.640;2023-03-23T03:38:48;100149.53;;;10.90;92.04
67457;BME280;54319;52.038;4.640;2023-03-23T03:41:15;100153.22;;;10.96;92.46
67457;BME280;54319;52.038;4.640;2023-03-23T03:43:42;100163.38;;;10.89;93.23
67457;BME280;54319;52.038;4.640;2023-03-23T03:46:09;100162.66;;;10.81;93.53
67457;BME280;54319;52.038;4.640;2023-03-23T03:48:36;100161.91;;;10.74;94.00
67457;BME280;54319;52.038;4.640;2023-03-23T03:51:03;100166.31;;;10.75;93.98
67457;BME280;54319;52.038;4.640;2023-03-23T03:53:31;100172.44;;;10.70;94.58
67457;BME280;54319;52.038;4.640;2023-03-23T03:55:57;100181.94;;;10.68;95.08
67457;BME280;54319;52.038;4.640;2023-03-23T03:58:27;100110.66;;;10.27;95.67
67457;BME280;54319;52.038;4.640;2023-03-23T04:00:57;100164.81;;;10.61;95.65
67457;BME280;54319;52.038;4.640;2023-03-23T04:03:24;100174.28;;;10.58;95.90
67457;BME280;54319;52.038;4.640;2023-03-23T04:05:52;100164.19;;;10.59;95.30
67457;BME280;54319;52.038;4.640;2023-03-23T04:08:20;100180.94;;;10.62;94.49
67457;BME280;54319;52.038;4.640;2023-03-23T04:10:49;100177.75;;;10.65;94.13
67457;BME280;54319;52.038;4.640;2023-03-23T04:13:17;100178.00;;;10.64;94.01
67457;BME280;54319;52.038;4.640;2023-03-23T04:15:44;100175.88;;;10.66;93.35
67457;BME280;54319;52.038;4.640;2023-03-23T04:18:11;100156.66;;;10.61;92.45
67457;BME280;54319;52.038;4.640;2023-03-23T04:20:40;100188.34;;;10.74;91.90
67457;BME280;54319;52.038;4.640;2023-03-23T04:23:07;100203.91;;;10.73;92.03
67457;BME280;54319;52.038;4.640;2023-03-23T04:25:34;100183.81;;;10.67;91.32
67457;BME280;54319;52.038;4.640;2023-03-23T04:28:02;100194.19;;;10.77;91.44
67457;BME280;54319;52.038;4.640;2023-03-23T04:30:29;100204.25;;;10.77;91.58
67457;BME280;54319;52.038;4.640;2023-03-23T04:32:57;100210.94;;;10.81;91.10
67457;BME280;54319;52.038;4.640;2023-03-23T04:35:27;100211.75;;;10.81;90.79
67457;BME280;54319;52.038;4.640;2023-03-23T04:37:54;100217.22;;;10.81;91.01
67457;BME280;54319;52.038;4.640;2023-03-23T04:40:22;100223.66;;;10.87;90.22
67457;BME280;54319;52.038;4.640;2023-03-23T04:42:49;100219.28;;;10.86;90.21
67457;BME280;54319;52.038;4.640;2023-03-23T04:45:20;100219.28;;;10.86;89.83
67457;BME280;54319;52.038;4.640;2023-03-23T04:47:48;100232.78;;;10.81;90.29
67457;BME280;54319;52.038;4.640;2023-03-23T04:50:20;100232.78;;;10.81;90.89
67457;BME280;54319;52.038;4.640;2023-03-23T04:52:49;100204.22;;;10.65;90.56
67457;BME280;54319;52.038;4.640;2023-03-23T04:55:17;100215.63;;;10.74;90.75
67457;BME280;54319;52.038;4.640;2023-03-23T04:57:44;100214.06;;;10.66;90.75
67457;BME280;54319;52.038;4.640;2023-03-23T05:00:11;100215.72;;;10.67;91.21
67457;BME280;54319;52.038;4.640;2023-03-23T05:02:41;100228.75;;;10.65;91.99
67457;BME280;54319;52.038;4.640;2023-03-23T05:05:08;100233.00;;;10.61;92.91
67457;BME280;54319;52.038;4.640;2023-03-23T05:07:36;100244.19;;;10.52;93.94
67457;BME280;54319;52.038;4.640;2023-03-23T05:10:03;100236.97;;;10.39;95.02
67457;BME280;54319;52.038;4.640;2023-03-23T05:12:31;100232.81;;;10.37;95.49
67457;BME280;54319;52.038;4.640;2023-03-23T05:14:57;100233.25;;;10.34;95.51
67457;BME280;54319;52.038;4.640;2023-03-23T05:17:24;100232.06;;;10.30;95.57
67457;BME280;54319;52.038;4.640;2023-03-23T05:19:52;100228.72;;;10.27;95.84
67457;BME280;54319;52.038;4.640;2023-03-23T05:22:22;100227.66;;;10.28;95.39
67457;BME280;54319;52.038;4.640;2023-03-23T05:24:49;100235.00;;;10.28;95.78
67457;BME280;54319;52.038;4.640;2023-03-23T05:27:17;100238.41;;;10.23;95.80
67457;BME280;54319;52.038;4.640;2023-03-23T05:29:44;100241.75;;;10.25;95.89
67457;BME280;54319;52.038;4.640;2023-03-23T05:32:13;100247.19;;;10.25;95.71
67457;BME280;54319;52.038;4.640;2023-03-23T05:34:40;100256.19;;;10.26;94.97
67457;BME280;54319;52.038;4.640;2023-03-23T05:37:09;100257.25;;;10.25;95.07
67457;BME280;54319;52.038;4.640;2023-03-23T05:39:37;100262.50;;;10.26;94.74
67457;BME280;54319;52.038;4.640;2023-03-23T05:42:06;100268.56;;;10.28;94.47
67457;BME280;54319;52.038;4.640;2023-03-23T05:44:33;100255.91;;;10.34;93.85
67457;BME280;54319;52.038;4.640;2023-03-23T05:46:59;100271.81;;;10.37;94.10
67457;BME280;54319;52.038;4.640;2023-03-23T05:49:26;100261.13;;;10.36;93.75
67457;BME280;54319;52.038;4.640;2023-03-23T05:51:52;100282.69;;;10.44;93.51
67457;BME280;54319;52.038;4.640;2023-03-23T05:54:20;100280.09;;;10.49;93.43
67457;BME280;54319;52.038;4.640;2023-03-23T05:56:48;100273.69;;;10.44;93.96
67457;BME280;54319;52.038;4.640;2023-03-23T05:59:15;100273.03;;;10.41;94.29
67457;BME280;54319;52.038;4.640;2023-03-23T06:01:41;100273.47;;;10.38;94.44
67457;BME280;54319;52.038;4.640;2023-03-23T06:04:08;100282.78;;;10.31;94.60
67457;BME280;54319;52.038;4.640;2023-03-23T06:06:37;100286.56;;;10.30;94.80
67457;BME280;54319;52.038;4.640;2023-03-23T06:09:04;100285.28;;;10.32;94.60
67457;BME280;54319;52.038;4.640;2023-03-23T06:11:33;100281.13;;;10.30;94.70
67457;BME280;54319;52.038;4.640;2023-03-23T06:14:00;100293.25;;;10.34;94.64
67457;BME280;54319;52.038;4.640;2023-03-23T06:16:28;100296.13;;;10.39;94.61
67457;BME280;54319;52.038;4.640;2023-03-23T06:18:55;100300.38;;;10.35;94.52
67457;BME280;54319;52.038;4.640;2023-03-23T06:21:22;100305.38;;;10.38;94.38
67457;BME280;54319;52.038;4.640;2023-03-23T06:23:48;100308.28;;;10.43;93.74
67457;BME280;54319;52.038;4.640;2023-03-23T06:26:18;100299.03;;;10.44;93.62
67457;BME280;54319;52.038;4.640;2023-03-23T06:28:46;100241.09;;;10.05;93.31
67457;BME280;54319;52.038;4.640;2023-03-23T06:31:14;100309.03;;;10.50;92.24
67457;BME280;54319;52.038;4.640;2023-03-23T06:33:42;100317.63;;;10.54;91.75
67457;BME280;54319;52.038;4.640;2023-03-23T06:36:09;100306.66;;;10.61;91.32
67457;BME280;54319;52.038;4.640;2023-03-23T06:38:37;100320.28;;;10.61;90.77
67457;BME280;54319;52.038;4.640;2023-03-23T06:41:04;100313.53;;;10.63;90.46
67457;BME280;54319;52.038;4.640;2023-03-23T06:43:32;100301.25;;;10.54;90.56
67457;BME280;54319;52.038;4.640;2023-03-23T06:46:02;100303.94;;;10.61;90.51
67457;BME280;54319;52.038;4.640;2023-03-23T06:48:29;100328.03;;;10.64;89.69
67457;BME280;54319;52.038;4.640;2023-03-23T06:50:56;100349.59;;;10.65;90.16
67457;BME280;54319;52.038;4.640;2023-03-23T06:53:22;100332.41;;;10.65;90.13
67457;BME280;54319;52.038;4.640;2023-03-23T06:55:49;100339.38;;;10.61;89.44
67457;BME280;54319;52.038;4.640;2023-03-23T06:58:16;100325.75;;;10.61;88.95
67457;BME280;54319;52.038;4.640;2023-03-23T07:00:44;100335.59;;;10.62;87.78
67457;BME280;54319;52.038;4.640;2023-03-23T07:03:12;100295.41;;;10.50;88.19
67457;BME280;54319;52.038;4.640;2023-03-23T07:05:39;100330.44;;;10.72;87.00
67457;BME280;54319;52.038;4.640;2023-03-23T07:08:05;100331.50;;;10.71;87.81
67457;BME280;54319;52.038;4.640;2023-03-23T07:10:32;100337.78;;;10.71;87.99
67457;BME280;54319;52.038;4.640;2023-03-23T07:12:58;100343.25;;;10.71;88.28
67457;BME280;54319;52.038;4.640;2023-03-23T07:15:25;100324.06;;;10.60;88.87
67457;BME280;54319;52.038;4.640;2023-03-23T07:17:52;100328.19;;;10.69;88.88
67457;BME280;54319;52.038;4.640;2023-03-23T07:20:21;100324.84;;;10.67;89.42
67457;BME280;54319;52.038;4.640;2023-03-23T07:22:47;100336.66;;;10.61;90.34
67457;BME280;54319;52.038;4.640;2023-03-23T07:25:15;100352.63;;;10.57;90.17
67457;BME280;54319;52.038;4.640;2023-03-23T07:27:41;100345.88;;;10.60;90.52
67457;BME280;54319;52.038;4.640;2023-03-23T07:30:09;100347.34;;;10.62;90.83
67457;BME280;54319;52.038;4.640;2023-03-23T07:32:35;100331.97;;;10.68;90.48
67457;BME280;54319;52.038;4.640;2023-03-23T07:35:02;100347.28;;;10.69;90.30
67457;BME280;54319;52.038;4.640;2023-03-23T07:37:30;100335.31;;;10.70;90.50
67457;BME280;54319;52.038;4.640;2023-03-23T07:39:57;100316.56;;;10.55;90.16
67457;BME280;54319;52.038;4.640;2023-03-23T07:42:24;100348.59;;;10.60;89.55
67457;BME280;54319;52.038;4.640;2023-03-23T07:44:51;100355.81;;;10.73;90.07
67457;BME280;54319;52.038;4.640;2023-03-23T07:47:17;100344.94;;;11.10;87.83
67457;BME280;54319;52.038;4.640;2023-03-23T07:49:44;100350.81;;;11.44;86.18
67457;BME280;54319;52.038;4.640;2023-03-23T07:52:11;100359.06;;;11.56;85.19
67457;BME280;54319;52.038;4.640;2023-03-23T07:54:39;100360.16;;;11.97;83.86
67457;BME280;54319;52.038;4.640;2023-03-23T07:57:06;100356.31;;;12.29;82.17
67457;BME280;54319;52.038;4.640;2023-03-23T07:59:33;100363.13;;;12.26;82.58
67457;BME280;54319;52.038;4.640;2023-03-23T08:02:01;100369.16;;;12.16;82.46
67457;BME280;54319;52.038;4.640;2023-03-23T08:04:29;100370.75;;;11.94;82.79
67457;BME280;54319;52.038;4.640;2023-03-23T08:07:02;100371.34;;;11.65;83.47
67457;BME280;54319;52.038;4.640;2023-03-23T08:09:29;100370.13;;;11.61;84.53
67457;BME280;54319;52.038;4.640;2023-03-23T08:11:57;100378.88;;;11.51;84.71
67457;BME280;54319;52.038;4.640;2023-03-23T08:14:24;100377.81;;;11.52;85.12
67457;BME280;54319;52.038;4.640;2023-03-23T08:16:52;100379.78;;;11.45;85.34
67457;BME280;54319;52.038;4.640;2023-03-23T08:19:21;100381.56;;;11.39;85.41
67457;BME280;54319;52.038;4.640;2023-03-23T08:21:48;100262.25;;;10.72;84.86
67457;BME280;54319;52.038;4.640;2023-03-23T08:24:16;100380.63;;;11.46;84.96
67457;BME280;54319;52.038;4.640;2023-03-23T08:26:43;100376.09;;;11.39;85.65
67457;BME280;54319;52.038;4.640;2023-03-23T08:29:11;100393.84;;;11.30;87.36
67457;BME280;54319;52.038;4.640;2023-03-23T08:31:38;100385.66;;;11.30;87.96
67457;BME280;54319;52.038;4.640;2023-03-23T08:34:08;100367.31;;;11.00;87.81
67457;BME280;54319;52.038;4.640;2023-03-23T08:36:35;100358.72;;;11.15;87.83
67457;BME280;54319;52.038;4.640;2023-03-23T08:39:03;100395.13;;;11.46;86.95
67457;BME280;54319;52.038;4.640;2023-03-23T08:41:31;100385.78;;;11.35;86.01
67457;BME280;54319;52.038;4.640;2023-03-23T08:43:57;100407.03;;;11.52;86.45
67457;BME280;54319;52.038;4.640;2023-03-23T08:46:26;100407.97;;;11.46;85.66
67457;BME280;54319;52.038;4.640;2023-03-23T08:48:52;100401.63;;;11.45;85.74
67457;BME280;54319;52.038;4.640;2023-03-23T08:51:20;100406.34;;;11.56;85.10
67457;BME280;54319;52.038;4.640;2023-03-23T08:53:47;100405.03;;;11.59;84.47
67457;BME280;54319;52.038;4.640;2023-03-23T08:56:13;100418.97;;;11.69;84.20
67457;BME280;54319;52.038;4.640;2023-03-23T08:58:40;100404.22;;;11.40;81.10
67457;BME280;54319;52.038;4.640;2023-03-23T09:01:07;100397.94;;;11.39;81.20
67457;BME280;54319;52.038;4.640;2023-03-23T09:03:36;100412.63;;;11.57;82.79
67457;BME280;54319;52.038;4.640;2023-03-23T09:06:05;100410.19;;;11.67;82.69
67457;BME280;54319;52.038;4.640;2023-03-23T09:08:32;100417.09;;;11.70;82.25
67457;BME280;54319;52.038;4.640;2023-03-23T09:11:02;100420.75;;;11.64;82.33
67457;BME280;54319;52.038;4.640;2023-03-23T09:13:29;100404.56;;;11.81;80.68
67457;BME280;54319;52.038;4.640;2023-03-23T09:15:58;100397.22;;;11.93;80.00
67457;BME280;54319;52.038;4.640;2023-03-23T09:18:24;100394.78;;;12.04;80.22
67457;BME280;54319;52.038;4.640;2023-03-23T09:20:54;100404.94;;;12.15;79.70
67457;BME280;54319;52.038;4.640;2023-03-23T09:23:22;100402.16;;;12.45;79.43
67457;BME280;54319;52.038;4.640;2023-03-23T09:25:49;100396.44;;;12.35;77.17
67457;BME280;54319;52.038;4.640;2023-03-23T09:28:16;100401.41;;;12.26;77.18
67457;BME280;54319;52.038;4.640;2023-03-23T09:30:43;100412.84;;;12.47;76.47
67457;BME280;54319;52.038;4.640;2023-03-23T09:33:10;100412.41;;;12.50;76.20
67457;BME280;54319;52.038;4.640;2023-03-23T09:35:37;100410.25;;;12.52;76.41
67457;BME280;54319;52.038;4.640;2023-03-23T09:38:09;100407.03;;;12.55;77.18
67457;BME280;54319;52.038;4.640;2023-03-23T09:40:43;100428.66;;;12.45;74.71
67457;BME280;54319;52.038;4.640;2023-03-23T09:43:40;100419.03;;;12.42;76.06
67457;BME280;54319;52.038;4.640;2023-03-23T09:46:27;100426.38;;;12.30;76.04
67457;BME280;54319;52.038;4.640;2023-03-23T09:48:58;100442.63;;;12.13;76.70
67457;BME280;54319;52.038;4.640;2023-03-23T09:51:34;100432.00;;;12.05;75.39
67457;BME280;54319;52.038;4.640;2023-03-23T09:54:05;100439.56;;;12.21;76.55
67457;BME280;54319;52.038;4.640;2023-03-23T09:56:35;100451.69;;;12.25;76.88
67457;BME280;54319;52.038;4.640;2023-03-23T09:59:08;100454.06;;;12.22;75.07
67457;BME280;54319;52.038;4.640;2023-03-23T10:01:40;100456.09;;;12.26;73.76
67457;BME280;54319;52.038;4.640;2023-03-23T10:04:14;100461.56;;;12.26;73.42
67457;BME280;54319;52.038;4.640;2023-03-23T10:06:42;100451.00;;;12.42;74.00
67457;BME280;54319;52.038;4.640;2023-03-23T10:09:14;100446.19;;;12.56;74.30
67457;BME280;54319;52.038;4.640;2023-03-23T10:11:50;100437.63;;;12.52;72.96
67457;BME280;54319;52.038;4.640;2023-03-23T10:14:25;100471.03;;;12.66;73.34
67457;BME280;54319;52.038;4.640;2023-03-23T10:16:55;100462.97;;;12.59;73.62
67457;BME280;54319;52.038;4.640;2023-03-23T10:19:29;100459.38;;;12.59;73.07
67457;BME280;54319;52.038;4.640;2023-03-23T10:22:03;100471.66;;;12.68;72.74
67457;BME280;54319;52.038;4.640;2023-03-23T10:24:36;100470.00;;;12.91;72.46
67457;BME280;54319;52.038;4.640;2023-03-23T10:27:13;100462.88;;;12.90;70.77
67457;BME280;54319;52.038;4.640;2023-03-23T10:29:47;100465.97;;;13.17;71.28
67457;BME280;54319;52.038;4.640;2023-03-23T10:32:18;100479.66;;;13.53;70.76
67457;BME280;54319;52.038;4.640;2023-03-23T10:34:50;100475.66;;;13.85;68.54
67457;BME280;54319;52.038;4.640;2023-03-23T10:37:22;100468.72;;;13.82;68.98
67457;BME280;54319;52.038;4.640;2023-03-23T10:39:52;100450.41;;;13.71;66.07
67457;BME280;54319;52.038;4.640;2023-03-23T10:42:27;100464.66;;;13.97;68.10
67457;BME280;54319;52.038;4.640;2023-03-23T10:44:56;100465.78;;;14.13;67.23
67457;BME280;54319;52.038;4.640;2023-03-23T10:47:24;100475.47;;;14.03;65.76
67457;BME280;54319;52.038;4.640;2023-03-23T10:49:53;100479.09;;;14.21;66.39
67457;BME280;54319;52.038;4.640;2023-03-23T10:52:29;100493.00;;;14.02;65.57
67457;BME280;54319;52.038;4.640;2023-03-23T10:55:03;100496.47;;;13.98;67.28
67457;BME280;54319;52.038;4.640;2023-03-23T10:57:31;100488.94;;;14.05;66.72
67457;BME280;54319;52.038;4.640;2023-03-23T11:00:04;100474.97;;;14.36;65.80
67457;BME280;54319;52.038;4.640;2023-03-23T11:02:37;100471.25;;;14.13;64.89
67457;BME280;54319;52.038;4.640;2023-03-23T11:05:09;100474.28;;;14.28;64.84
67457;BME280;54319;52.038;4.640;2023-03-23T11:07:40;100474.81;;;14.42;64.67
67457;BME280;54319;52.038;4.640;2023-03-23T11:10:16;100466.34;;;14.44;64.91
67457;BME280;54319;52.038;4.640;2023-03-23T11:12:48;100458.31;;;14.25;65.93
67457;BME280;54319;52.038;4.640;2023-03-23T11:15:25;100463.84;;;14.42;65.83
67457;BME280;54319;52.038;4.640;2023-03-23T11:18:00;100454.34;;;14.79;64.95
67457;BME280;54319;52.038;4.640;2023-03-23T11:20:29;100466.16;;;14.51;63.11
67457;BME280;54319;52.038;4.640;2023-03-23T11:22:56;100469.00;;;14.56;62.73
67457;BME280;54319;52.038;4.640;2023-03-23T11:25:24;100475.41;;;14.61;61.23
67457;BME280;54319;52.038;4.640;2023-03-23T11:27:52;100462.44;;;14.40;61.75
67457;BME280;54319;52.038;4.640;2023-03-23T11:30:22;100467.00;;;14.51;62.23
67457;BME280;54319;52.038;4.640;2023-03-23T11:32:50;100468.34;;;14.66;62.19
67457;BME280;54319;52.038;4.640;2023-03-23T11:35:21;100458.97;;;14.79;61.91
67457;BME280;54319;52.038;4.640;2023-03-23T11:37:51;100452.22;;;14.69;62.36
67457;BME280;54319;52.038;4.640;2023-03-23T11:40:20;100442.66;;;14.89;62.89
67457;BME280;54319;52.038;4.640;2023-03-23T11:42:56;100458.84;;;15.25;63.66
67457;BME280;54319;52.038;4.640;2023-03-23T11:45:31;100453.25;;;14.97;62.39
67457;BME280;54319;52.038;4.640;2023-03-23T11:48:06;100471.78;;;14.73;62.46
67457;BME280;54319;52.038;4.640;2023-03-23T11:50:47;100457.03;;;14.96;64.00
67457;BME280;54319;52.038;4.640;2023-03-23T11:53:23;100470.13;;;14.72;62.78
67457;BME280;54319;52.038;4.640;2023-03-23T11:55:56;100468.38;;;15.00;63.58
67457;BME280;54319;52.038;4.640;2023-03-23T11:58:25;100465.09;;;15.20;61.77
67457;BME280;54319;52.038;4.640;2023-03-23T12:01:00;100462.06;;;14.99;61.73
67457;BME280;54319;52.038;4.640;2023-03-23T12:03:53;100472.47;;;14.97;61.82
67457;BME280;54319;52.038;4.640;2023-03-23T12:06:28;100475.41;;;14.61;61.33
67457;BME280;54319;52.038;4.640;2023-03-23T12:09:10;100480.38;;;14.76;61.07
67457;BME280;54319;52.038;4.640;2023-03-23T12:11:48;100464.13;;;14.75;61.79
67457;BME280;54319;52.038;4.640;2023-03-23T12:14:27;100471.84;;;14.95;62.17
67457;BME280;54319;52.038;4.640;2023-03-23T12:17:02;100461.03;;;15.05;62.01
67457;BME280;54319;52.038;4.640;2023-03-23T12:19:40;100464.91;;;14.87;60.54
67457;BME280;54319;52.038;4.640;2023-03-23T12:22:23;100463.81;;;14.88;60.86
67457;BME280;54319;52.038;4.640;2023-03-23T12:25:01;100488.31;;;14.61;60.16
67457;BME280;54319;52.038;4.640;2023-03-23T12:27:38;100448.59;;;14.35;61.04
67457;BME280;54319;52.038;4.640;2023-03-23T12:30:21;100463.94;;;14.18;61.13
67457;BME280;54319;52.038;4.640;2023-03-23T12:33:13;100463.00;;;14.42;61.57
67457;BME280;54319;52.038;4.640;2023-03-23T12:35:59;100463.63;;;14.15;62.50
67457;BME280;54319;52.038;4.640;2023-03-23T12:38:43;100418.34;;;14.00;62.28
67457;BME280;54319;52.038;4.640;2023-03-23T12:41:16;100434.00;;;14.46;62.40
67457;BME280;54319;52.038;4.640;2023-03-23T12:43:52;100459.53;;;14.64;61.96
67457;BME280;54319;52.038;4.640;2023-03-23T12:46:42;100468.06;;;14.79;62.73
67457;BME280;54319;52.038;4.640;2023-03-23T12:49:17;100435.44;;;14.83;62.10
67457;BME280;54319;52.038;4.640;2023-03-23T12:51:51;100440.75;;;14.89;63.23
67457;BME280;54319;52.038;4.640;2023-03-23T12:54:23;100447.50;;;14.82;63.84
67457;BME280;54319;52.038;4.640;2023-03-23T12:56:54;100443.41;;;15.01;63.43
67457;BME280;54319;52.038;4.640;2023-03-23T12:59:28;100440.47;;;15.08;62.25
67457;BME280;54319;52.038;4.640;2023-03-23T13:02:01;100458.09;;;15.12;59.45
67457;BME280;54319;52.038;4.640;2023-03-23T13:04:32;100450.88;;;15.06;60.28
67457;BME280;54319;52.038;4.640;2023-03-23T13:07:05;100473.63;;;14.84;61.80
67457;BME280;54319;52.038;4.640;2023-03-23T13:09:43;100460.03;;;15.12;61.08
67457;BME280;54319;52.038;4.640;2023-03-23T13:12:14;100485.28;;;14.92;59.34